»·PEaware :: N55NT KAPV-KBFL

N55NT :: KAPV-KBFL

FLIGHT INFORMATION

Flight Status: Arrived
Operator: Privately registered:
United States
More flights under this callsign
Pilot: Craig H. (6968)
Aircraft: BEECH AIRCRAFT BARON
(BE58)
More flights by this aircraft type
Origin: KAPV Apple Valley
United States
Destination: KBFL Meadows
United States
More flights between these airports :: More routes between these airports
Route: HELDE V12 PMD FASTO2
File this flight plan on PilotEdge
Remarks:
Altitude:
(Current/Filed)
10,000ft
Speed:
(Current/Filed)
185kts
Departed: 10-Jul-20 03:06 PM
Arrived: 10-Jul-20 03:47 PM
Distance/Time
Traveled:
105nm/0:41
Distance/Time
To Go:
Arrived

Flight Plot

Page will automatically refresh every two minutes.

Flight plan parsing failed; only flown route is shown


Map Options




Map Legend


Flown Route
Filed Route
Departure Airport
Arrival Airport
Navaid (VOR, NDB)
Fix

Horizontal Profiles

Position Reports

Time Latitude Longitude Heading Altitude Ground
Speed
10-Jul-20 14:51 34.573623 -117.189549 90 3065ft 0kts
10-Jul-20 14:52 34.573623 -117.189549 90 3065ft 0kts
10-Jul-20 14:53 34.573623 -117.189549 90 3065ft 0kts
10-Jul-20 14:54 34.573623 -117.189549 90 3065ft 0kts
10-Jul-20 14:55 34.573623 -117.189549 90 3065ft 0kts
10-Jul-20 14:56 34.573623 -117.189549 90 3065ft 0kts
10-Jul-20 14:57 34.573339 -117.188904 97 3065ft 7kts
10-Jul-20 14:58 34.575771 -117.188058 18 3065ft 16kts
10-Jul-20 14:59 34.580632 -117.186333 17 3065ft 20kts
10-Jul-20 15:00 34.584804 -117.184923 20 3065ft 13kts
10-Jul-20 15:01 34.587558 -117.184378 41 3065ft 3kts
10-Jul-20 15:02 34.587560 -117.184310 126 3065ft 0kts
10-Jul-20 15:03 34.587560 -117.184310 126 3065ft 0kts
10-Jul-20 15:04 34.587666 -117.183853 74 3065ft 7kts
10-Jul-20 15:05 34.581972 -117.184508 190 3071ft 94kts
10-Jul-20 15:06 34.555458 -117.190161 143 4235ft 103kts
10-Jul-20 15:07 34.565819 -117.157518 23 4830ft 166kts
10-Jul-20 15:08 34.600264 -117.178528 298 5847ft 150kts
10-Jul-20 15:09 34.620558 -117.218625 297 6774ft 151kts
10-Jul-20 15:10 34.643450 -117.263594 297 7589ft 160kts
10-Jul-20 15:11 34.667126 -117.309716 297 8391ft 161kts
10-Jul-20 15:12 34.690833 -117.355993 297 9196ft 160kts
10-Jul-20 15:13 34.700387 -117.404207 259 9916ft 148kts
10-Jul-20 15:14 34.695839 -117.460821 258 9935ft 184kts
10-Jul-20 15:15 34.689416 -117.524805 258 9929ft 194kts
10-Jul-20 15:16 34.682579 -117.589999 258 9928ft 194kts
10-Jul-20 15:17 34.675659 -117.655260 258 9928ft 193kts
10-Jul-20 15:18 34.668704 -117.720338 258 9928ft 194kts
10-Jul-20 15:19 34.661721 -117.785258 258 9928ft 193kts
10-Jul-20 15:20 34.654667 -117.850327 258 9900ft 193kts
10-Jul-20 15:21 34.647637 -117.915201 258 9901ft 193kts
10-Jul-20 15:22 34.640560 -117.979948 257 9901ft 193kts
10-Jul-20 15:23 34.634116 -118.044716 269 9896ft 197kts
10-Jul-20 15:24 34.662667 -118.103030 307 9901ft 207kts
10-Jul-20 15:25 34.701599 -118.155042 309 9901ft 208kts
10-Jul-20 15:26 34.741114 -118.206556 309 9898ft 208kts
10-Jul-20 15:27 34.780679 -118.258136 309 9896ft 208kts
10-Jul-20 15:28 34.820199 -118.309771 309 9898ft 208kts
10-Jul-20 15:30 34.859727 -118.361462 309 9926ft 208kts
10-Jul-20 15:31 34.899265 -118.413211 309 9966ft 206kts
10-Jul-20 15:32 34.938038 -118.464043 309 10008ft 203kts
10-Jul-20 15:33 34.976014 -118.513974 309 10032ft 200kts
10-Jul-20 15:34 35.013613 -118.563457 309 10040ft 196kts
10-Jul-20 15:35 35.053073 -118.609195 314 10037ft 195kts
10-Jul-20 15:36 35.093977 -118.655991 313 9396ft 213kts
10-Jul-20 15:37 35.137031 -118.705443 313 8383ft 209kts
10-Jul-20 15:38 35.178440 -118.753162 313 7270ft 199kts
10-Jul-20 15:39 35.218114 -118.798963 313 6152ft 195kts
10-Jul-20 15:40 35.257452 -118.844421 313 5152ft 193kts
10-Jul-20 15:41 35.297399 -118.887075 318 4215ft 186kts
10-Jul-20 15:42 35.330757 -118.931761 312 3332ft 168kts
10-Jul-20 15:43 35.359028 -118.965949 312 2521ft 130kts
10-Jul-20 15:44 35.383389 -118.995475 312 1844ft 117kts
10-Jul-20 15:45 35.405430 -119.021949 312 1236ft 102kts
10-Jul-20 15:46 35.425363 -119.045986 314 691ft 96kts
10-Jul-20 15:47 35.439023 -119.062373 331 493ft 29kts
10-Jul-20 15:47 35.439285 -119.060547 135 497ft 14kts
10-Jul-20 15:49 35.435832 -119.056377 136 493ft 16kts
10-Jul-20 15:49 35.433192 -119.053159 136 492ft 15kts
10-Jul-20 15:50 35.430242 -119.049593 134 490ft 15kts
10-Jul-20 15:52 35.429939 -119.047135 94 494ft 4kts
10-Jul-20 15:52 35.429711 -119.046272 132 495ft 0kts
10-Jul-20 15:53 35.429711 -119.046272 132 495ft 0kts
10-Jul-20 15:54 35.429711 -119.046272 132 495ft 0kts
10-Jul-20 15:55 35.429711 -119.046272 132 495ft 0kts
10-Jul-20 15:56 35.429711 -119.046272 132 495ft 0kts
10-Jul-20 15:57 35.429711 -119.046272 132 495ft 0kts
10-Jul-20 15:58 35.429711 -119.046272 132 495ft 0kts
10-Jul-20 15:59 35.429711 -119.046272 132 495ft 0kts
10-Jul-20 16:00 35.429711 -119.046272 132 495ft 0kts

Navigation Log

Ident Type
Flight plan parsing failed, navigation log unavailable